Time;durP1;ratioP1;P1;durP2;ratioP2;P2;SDS_P1;SDS_P2;PMS_P1;PMS_P2;Temp;Humidity;BMP_temperature;BMP_pressure;BME280_temperature;BME280_humidity;BME280_pressure;Samples;Min_cycle;Max_cycle;Signal;HPM_P1;HPM_P2
2021/01/21 00:00:44;;;;;;;171.80;112.75;;;;;;;-1.26;82.25;98203.84;119324;1147;65206;-80
2021/01/21 00:03:10;;;;;;;182.33;115.07;;;;;;;-1.25;82.35;98195.08;119317;1147;65274;-80
2021/01/21 00:05:36;;;;;;;194.60;123.40;;;;;;;-1.30;82.20;98183.92;119212;1148;65468;-79
2021/01/21 00:08:03;;;;;;;199.10;118.30;;;;;;;-1.39;82.32;98187.69;119261;1148;65181;-79
2021/01/21 00:10:30;;;;;;;190.27;118.27;;;;;;;-1.42;82.34;98192.14;119251;1148;65057;-79
2021/01/21 00:12:56;;;;;;;183.67;118.50;;;;;;;-1.46;82.58;98177.48;119268;1148;65184;-79
2021/01/21 00:15:23;;;;;;;190.20;114.90;;;;;;;-1.47;82.85;98183.62;119278;1148;65114;-80
2021/01/21 00:17:49;;;;;;;175.27;109.80;;;;;;;-1.47;82.06;98176.62;119271;1148;65116;-81
2021/01/21 00:20:16;;;;;;;176.50;111.20;;;;;;;-1.51;81.81;98179.37;119383;1148;65092;-81
2021/01/21 00:22:43;;;;;;;198.35;121.00;;;;;;;-1.52;82.93;98175.92;119418;1147;65113;-80
2021/01/21 00:25:09;;;;;;;183.00;116.33;;;;;;;-1.51;82.89;98177.61;119286;1148;65114;-81
2021/01/21 00:27:36;;;;;;;183.65;113.40;;;;;;;-1.49;82.81;98173.20;118940;1148;65094;-82
2021/01/21 00:30:09;;;;;;;181.67;114.80;;;;;;;-1.50;82.67;98171.51;119377;1148;65108;-81
2021/01/21 00:32:36;;;;;;;191.20;121.37;;;;;;;-1.47;82.27;98174.02;119288;1148;65209;-80
2021/01/21 00:35:04;;;;;;;182.37;115.77;;;;;;;-1.51;81.99;98174.16;119396;1148;65067;-80
2021/01/21 00:37:30;;;;;;;183.73;113.10;;;;;;;-1.61;81.86;98179.66;119002;1148;65282;-80
2021/01/21 00:39:57;;;;;;;186.93;118.03;;;;;;;-1.67;82.15;98179.85;118919;1148;65108;-80
2021/01/21 00:42:23;;;;;;;176.68;113.80;;;;;;;-1.66;82.21;98176.36;119100;1148;65115;-80
2021/01/21 00:44:49;;;;;;;180.03;113.47;;;;;;;-1.65;82.59;98169.37;119381;1147;65114;-80
2021/01/21 00:47:16;;;;;;;196.35;124.10;;;;;;;-1.67;82.23;98172.02;119353;1148;65198;-80
2021/01/21 00:49:42;;;;;;;177.73;114.80;;;;;;;-1.68;82.40;98164.24;119351;1148;65277;-81
2021/01/21 00:52:08;;;;;;;208.13;125.82;;;;;;;-1.68;82.13;98167.70;119337;1148;65243;-80
2021/01/21 00:54:35;;;;;;;221.77;132.30;;;;;;;-1.68;82.68;98161.63;119316;1148;65111;-81
2021/01/21 00:57:01;;;;;;;229.63;140.97;;;;;;;-1.66;83.26;98167.64;119356;1148;65111;-81
2021/01/21 00:59:27;;;;;;;292.50;176.03;;;;;;;-1.65;83.71;98159.77;119324;1148;65617;-79
2021/01/21 01:01:54;;;;;;;255.43;161.17;;;;;;;-1.68;82.75;98154.64;119371;1147;65236;-80
2021/01/21 01:04:20;;;;;;;275.77;168.80;;;;;;;-1.68;83.07;98159.02;119314;1148;65258;-79
2021/01/21 01:06:47;;;;;;;284.03;173.73;;;;;;;-1.67;82.85;98153.73;119258;1146;65111;-79
2021/01/21 01:09:13;;;;;;;252.40;157.97;;;;;;;-1.64;83.49;98142.33;119322;1148;65212;-79
2021/01/21 01:11:39;;;;;;;250.45;156.05;;;;;;;-1.60;83.62;98146.56;119278;1148;65089;-81
2021/01/21 01:14:06;;;;;;;255.70;155.20;;;;;;;-1.59;83.29;98143.04;119335;1148;65197;-81
2021/01/21 01:16:33;;;;;;;270.80;169.30;;;;;;;-1.64;82.58;98143.17;119357;1146;65018;-81
2021/01/21 01:18:59;;;;;;;268.97;166.23;;;;;;;-1.74;82.73;98139.14;119310;1148;65121;-81
2021/01/21 01:21:26;;;;;;;251.07;156.87;;;;;;;-1.72;83.70;98139.95;119157;1148;65162;-79
2021/01/21 01:23:53;;;;;;;240.70;148.15;;;;;;;-1.74;83.89;98141.75;118973;1146;65111;-80
2021/01/21 01:26:20;;;;;;;243.50;165.73;;;;;;;-1.75;84.07;98141.82;118792;1148;65174;-79
2021/01/21 01:28:47;;;;;;;229.50;154.63;;;;;;;-1.73;83.25;98143.48;119173;1148;65113;-80
2021/01/21 01:31:14;;;;;;;236.60;152.07;;;;;;;-1.70;83.79;98142.53;119252;1148;65114;-80
2021/01/21 01:33:41;;;;;;;224.30;160.37;;;;;;;-1.69;83.72;98137.24;119294;1147;65141;-80
2021/01/21 01:36:07;;;;;;;239.77;159.80;;;;;;;-1.65;83.86;98136.26;119279;1147;65111;-80
2021/01/21 01:38:34;;;;;;;231.05;150.90;;;;;;;-1.63;83.58;98138.84;119250;1148;65213;-80
2021/01/21 01:41:00;;;;;;;221.93;146.63;;;;;;;-1.65;83.46;98138.88;119251;1148;65175;-80
2021/01/21 01:43:27;;;;;;;232.83;157.30;;;;;;;-1.71;83.51;98136.46;119226;1148;65088;-80
2021/01/21 01:45:53;;;;;;;211.13;141.63;;;;;;;-1.78;83.04;98134.94;119231;1148;65114;-80
2021/01/21 01:48:20;;;;;;;212.30;141.07;;;;;;;-1.80;84.01;98132.36;119258;1148;65108;-80
2021/01/21 01:50:47;;;;;;;225.20;145.47;;;;;;;-1.79;83.73;98136.70;119207;1148;65089;-80
2021/01/21 01:53:13;;;;;;;219.95;142.05;;;;;;;-1.83;83.84;98129.84;119221;1148;65133;-80
2021/01/21 01:55:40;;;;;;;231.70;148.20;;;;;;;-1.89;83.03;98130.05;119250;1148;65092;-81
2021/01/21 01:58:13;;;;;;;223.00;145.70;;;;;;;-1.92;83.01;98135.37;119277;1148;65110;-81
2021/01/21 02:00:42;;;;;;;208.63;143.93;;;;;;;-1.96;83.52;98131.13;119348;1148;65108;-80
2021/01/21 02:03:08;;;;;;;206.43;140.27;;;;;;;-2.01;83.58;98133.02;119336;1148;65091;-80
2021/01/21 02:05:35;;;;;;;209.70;139.80;;;;;;;-2.11;83.08;98136.80;119369;1148;65248;-80
2021/01/21 02:08:02;;;;;;;207.03;139.33;;;;;;;-2.15;83.74;98130.83;119045;1148;65108;-80
2021/01/21 02:10:28;;;;;;;215.80;145.30;;;;;;;-2.10;83.75;98128.94;119093;1147;65104;-80
2021/01/21 02:13:33;;;;;;;217.57;146.60;;;;;;;-2.07;83.21;98135.83;119365;1148;65091;-79
2021/01/21 02:16:16;;;;;;;218.53;140.83;;;;;;;-2.06;83.71;98134.91;119282;1148;65159;-79
2021/01/21 02:18:56;;;;;;;208.47;135.70;;;;;;;-2.09;83.13;98137.62;119347;1147;65030;-80
2021/01/21 02:21:51;;;;;;;211.15;135.55;;;;;;;-2.11;83.12;98134.20;119331;1148;65010;-79
2021/01/21 02:24:36;;;;;;;213.15;139.95;;;;;;;-2.17;83.20;98130.02;119328;1148;65055;-81
2021/01/21 02:27:06;;;;;;;194.47;126.30;;;;;;;-2.26;82.68;98131.16;119347;1148;65104;-80
2021/01/21 02:29:36;;;;;;;204.90;138.75;;;;;;;-2.29;83.27;98130.36;119317;1148;65273;-79
2021/01/21 02:32:05;;;;;;;199.67;136.73;;;;;;;-2.25;83.75;98130.23;119339;1148;65206;-79
2021/01/21 02:34:58;;;;;;;202.40;137.75;;;;;;;-2.22;83.92;98122.31;119343;1147;65207;-79
2021/01/21 02:37:27;;;;;;;195.20;135.73;;;;;;;-2.15;83.65;98128.22;119312;1148;65082;-79
2021/01/21 02:40:02;;;;;;;197.17;139.77;;;;;;;-2.13;83.45;98130.77;119371;1148;65094;-80
2021/01/21 02:42:29;;;;;;;192.03;134.20;;;;;;;-2.09;83.12;98117.59;119330;1148;65283;-80
2021/01/21 02:44:55;;;;;;;197.73;136.27;;;;;;;-2.09;83.25;98124.56;119353;1148;65107;-79
2021/01/21 02:47:23;;;;;;;196.33;130.97;;;;;;;-2.12;82.68;98119.45;119327;1147;65092;-79
2021/01/21 02:49:51;;;;;;;190.50;131.05;;;;;;;-2.17;83.36;98116.12;119234;1148;65079;-80
2021/01/21 02:52:32;;;;;;;187.30;127.03;;;;;;;-2.22;83.22;98117.09;119326;1146;65116;-80
2021/01/21 02:55:13;;;;;;;200.30;132.97;;;;;;;-2.23;83.45;98123.23;119326;1147;65207;-80
2021/01/21 02:57:47;;;;;;;194.20;135.60;;;;;;;-2.26;83.63;98125.08;119316;1148;65115;-79
2021/01/21 03:00:26;;;;;;;204.57;135.87;;;;;;;-2.31;83.27;98119.14;119331;1148;65149;-80
2021/01/21 03:02:58;;;;;;;201.07;133.93;;;;;;;-2.29;83.28;98120.80;119278;1148;65066;-79
2021/01/21 03:05:25;;;;;;;199.15;133.45;;;;;;;-2.29;83.73;98125.14;119254;1147;65190;-81
2021/01/21 03:07:52;;;;;;;195.70;132.93;;;;;;;-2.34;83.03;98130.52;119401;1148;65116;-81
2021/01/21 03:10:20;;;;;;;183.40;133.57;;;;;;;-2.35;83.64;98135.77;119362;1148;65127;-80
2021/01/21 03:12:55;;;;;;;194.17;135.70;;;;;;;-2.36;83.27;98137.53;119334;1148;65033;-79
2021/01/21 03:15:23;;;;;;;195.53;137.83;;;;;;;-2.35;83.66;98140.99;119411;1148;65111;-80
2021/01/21 03:17:50;;;;;;;197.47;136.53;;;;;;;-2.35;83.39;98135.77;119140;1148;65158;-79
2021/01/21 03:20:17;;;;;;;217.83;142.67;;;;;;;-2.32;83.26;98141.75;119279;1148;65142;-81
2021/01/21 03:22:44;;;;;;;207.63;146.40;;;;;;;-2.34;83.48;98142.69;119397;1148;65184;-80
2021/01/21 03:25:11;;;;;;;216.70;143.15;;;;;;;-2.43;83.39;98142.05;119273;1148;65026;-80
2021/01/21 03:27:38;;;;;;;206.53;136.70;;;;;;;-2.49;82.74;98137.02;119340;1148;65111;-81
2021/01/21 03:30:07;;;;;;;212.33;141.80;;;;;;;-2.53;83.45;98129.31;119309;1148;65592;-80
2021/01/21 03:32:37;;;;;;;201.67;139.67;;;;;;;-2.57;83.24;98130.32;119409;1148;65175;-80
2021/01/21 03:35:05;;;;;;;215.33;144.57;;;;;;;-2.60;83.19;98141.70;119353;1147;65127;-80
2021/01/21 03:37:32;;;;;;;214.93;143.27;;;;;;;-2.60;83.58;98139.09;118986;1148;65232;-80
2021/01/21 03:39:58;;;;;;;217.55;144.75;;;;;;;-2.65;83.25;98133.98;118847;1148;65175;-79
2021/01/21 03:42:25;;;;;;;211.30;137.77;;;;;;;-2.79;83.31;98133.53;118809;1148;65105;-79
2021/01/21 03:44:51;;;;;;;225.07;147.77;;;;;;;-2.89;83.36;98135.52;119121;1148;65267;-80
2021/01/21 03:47:17;;;;;;;225.37;145.67;;;;;;;-2.89;82.89;98143.34;119235;1148;65111;-79
2021/01/21 03:49:44;;;;;;;237.97;151.47;;;;;;;-2.87;83.37;98143.28;119263;1148;65207;-81
2021/01/21 03:52:10;;;;;;;222.67;142.83;;;;;;;-2.88;83.54;98138.97;119015;1148;66374;-79
2021/01/21 03:54:36;;;;;;;250.03;161.07;;;;;;;-2.91;83.53;98131.23;119305;1148;65120;-79
2021/01/21 03:57:03;;;;;;;236.77;150.47;;;;;;;-2.92;82.78;98134.75;119299;1148;65149;-80
2021/01/21 03:59:29;;;;;;;230.57;153.90;;;;;;;-2.94;82.84;98129.57;119292;1148;65205;-79
2021/01/21 04:01:56;;;;;;;245.93;159.90;;;;;;;-2.96;82.85;98136.56;119258;1148;65107;-79
2021/01/21 04:04:22;;;;;;;238.67;154.40;;;;;;;-3.03;83.56;98134.16;119266;1148;65093;-80
2021/01/21 04:06:48;;;;;;;257.87;169.00;;;;;;;-3.08;83.07;98126.48;119281;1148;65516;-79
2021/01/21 04:09:15;;;;;;;256.83;165.00;;;;;;;-3.07;83.19;98124.73;118859;1148;65184;-79
2021/01/21 04:11:41;;;;;;;256.60;166.22;;;;;;;-3.08;83.74;98121.27;119044;1148;65126;-80
2021/01/21 04:14:07;;;;;;;248.73;164.60;;;;;;;-3.05;83.87;98121.19;118824;1148;65092;-80
2021/01/21 04:16:34;;;;;;;241.20;160.40;;;;;;;-3.04;82.99;98120.28;119273;1148;65082;-80
2021/01/21 04:19:00;;;;;;;245.87;157.40;;;;;;;-3.13;82.70;98125.75;119261;1148;65098;-79
2021/01/21 04:21:26;;;;;;;245.50;163.90;;;;;;;-3.14;83.80;98116.20;119037;1148;65367;-80
2021/01/21 04:23:59;;;;;;;257.40;162.90;;;;;;;-3.09;83.87;98117.78;119271;1148;65113;-79
2021/01/21 04:26:26;;;;;;;242.90;166.90;;;;;;;-3.04;83.88;98103.80;119256;1148;65178;-81
2021/01/21 04:28:53;;;;;;;246.57;158.83;;;;;;;-3.08;83.48;98105.64;118895;1147;65019;-82
2021/01/21 04:31:20;;;;;;;247.40;162.50;;;;;;;-3.09;83.52;98106.52;119166;1148;65194;-80
2021/01/21 04:33:46;;;;;;;240.03;161.50;;;;;;;-3.12;83.85;98107.45;119314;1148;65175;-80
2021/01/21 04:36:13;;;;;;;229.90;153.57;;;;;;;-3.09;84.10;98103.91;119358;1148;65145;-79
2021/01/21 04:38:39;;;;;;;242.13;161.97;;;;;;;-3.04;83.49;98116.83;119373;1146;65107;-80
2021/01/21 04:41:06;;;;;;;235.80;156.60;;;;;;;-3.06;83.46;98109.03;119323;1147;65141;-80
2021/01/21 04:43:32;;;;;;;234.85;149.90;;;;;;;-3.14;83.06;98104.02;119231;1148;65153;-80
2021/01/21 04:45:59;;;;;;;256.87;166.63;;;;;;;-3.12;83.32;98106.59;119060;1148;65099;-80
2021/01/21 04:48:29;;;;;;;255.47;161.47;;;;;;;-3.16;83.01;98104.95;119175;1148;65111;-80
2021/01/21 04:50:57;;;;;;;253.03;166.63;;;;;;;-3.18;83.60;98114.59;119186;1148;65113;-81
2021/01/21 04:53:26;;;;;;;246.80;160.23;;;;;;;-3.20;83.21;98113.77;119366;1148;65117;-81
2021/01/21 04:55:58;;;;;;;255.03;167.57;;;;;;;-3.20;83.15;98113.77;119326;1148;65050;-79
2021/01/21 04:58:31;;;;;;;241.50;161.70;;;;;;;-3.23;83.57;98106.88;119346;1148;65111;-80
2021/01/21 05:00:59;;;;;;;265.00;168.83;;;;;;;-3.27;83.54;98102.63;119325;1148;65089;-80
2021/01/21 05:03:28;;;;;;;244.23;162.93;;;;;;;-3.28;83.21;98103.54;119370;1148;65021;-80
2021/01/21 05:05:56;;;;;;;275.30;181.00;;;;;;;-3.27;83.14;98114.81;119318;1148;65108;-80
2021/01/21 05:08:23;;;;;;;268.87;178.83;;;;;;;-3.27;82.92;98112.20;119314;1148;65082;-82
2021/01/21 05:10:50;;;;;;;286.23;187.27;;;;;;;-3.31;83.12;98114.89;119355;1147;65139;-80
2021/01/21 05:13:17;;;;;;;294.80;190.77;;;;;;;-3.31;83.05;98108.83;119348;1147;65104;-79
2021/01/21 05:15:43;;;;;;;301.57;198.53;;;;;;;-3.33;83.76;98110.61;119392;1148;65111;-81
2021/01/21 05:18:12;;;;;;;288.20;193.10;;;;;;;-3.40;83.59;98109.89;119275;1148;65587;-79
2021/01/21 05:20:39;;;;;;;294.60;189.90;;;;;;;-3.39;83.04;98103.81;119289;1148;65156;-79
2021/01/21 05:23:07;;;;;;;278.43;189.80;;;;;;;-3.38;83.82;98107.27;119265;1148;65159;-82
2021/01/21 05:25:34;;;;;;;259.13;174.27;;;;;;;-3.36;84.00;98101.13;119303;1148;65165;-80
2021/01/21 05:28:06;;;;;;;279.87;186.73;;;;;;;-3.35;82.95;98105.43;119204;1148;65650;-79
2021/01/21 05:30:33;;;;;;;276.27;184.33;;;;;;;-3.36;83.37;98100.28;119402;1148;65079;-80
2021/01/21 05:33:01;;;;;;;296.93;198.53;;;;;;;-3.36;83.12;98108.94;119309;1148;65271;-81
2021/01/21 05:35:28;;;;;;;279.63;185.63;;;;;;;-3.37;83.28;98116.78;119340;1148;65117;-79
2021/01/21 05:37:58;;;;;;;280.87;189.60;;;;;;;-3.37;83.22;98115.05;119281;1148;65111;-80
2021/01/21 05:40:27;;;;;;;286.10;187.60;;;;;;;-3.35;83.02;98115.00;118984;1147;65091;-80
2021/01/21 05:42:56;;;;;;;271.85;193.45;;;;;;;-3.33;83.91;98116.67;119358;1148;65101;-79
2021/01/21 05:45:24;;;;;;;273.63;184.13;;;;;;;-3.37;83.54;98107.24;119299;1148;65213;-80
2021/01/21 05:47:57;;;;;;;286.65;194.05;;;;;;;-3.38;84.16;98105.52;119316;1148;65139;-79
2021/01/21 05:50:25;;;;;;;280.00;189.83;;;;;;;-3.34;83.78;98111.52;119138;1148;65117;-80
2021/01/21 05:52:55;;;;;;;283.90;194.90;;;;;;;-3.35;83.83;98108.03;119104;1148;65197;-80
2021/01/21 05:55:26;;;;;;;273.62;183.75;;;;;;;-3.37;83.42;98101.16;119392;1148;65105;-79
2021/01/21 05:57:56;;;;;;;276.80;195.67;;;;;;;-3.38;83.75;98104.66;119318;1148;65538;-80
2021/01/21 06:00:27;;;;;;;268.80;182.23;;;;;;;-3.36;84.12;98102.88;119383;1148;65149;-80
2021/01/21 06:02:53;;;;;;;283.90;193.17;;;;;;;-3.33;83.67;98108.86;119277;1148;65162;-80
2021/01/21 06:05:21;;;;;;;283.25;185.90;;;;;;;-3.34;83.74;98109.77;119079;1148;65113;-79
2021/01/21 06:07:49;;;;;;;276.97;189.70;;;;;;;-3.37;83.53;98112.45;119084;1148;65111;-80
2021/01/21 06:10:17;;;;;;;275.63;182.80;;;;;;;-3.41;82.79;98107.34;119211;1148;65715;-79
2021/01/21 06:12:51;;;;;;;274.33;183.00;;;;;;;-3.43;82.78;98115.19;119267;1148;65185;-82
2021/01/21 06:15:20;;;;;;;268.20;175.97;;;;;;;-3.45;83.51;98105.70;119359;1148;66359;-80
2021/01/21 06:17:48;;;;;;;270.47;187.47;;;;;;;-3.50;82.99;98111.05;119258;1148;65104;-80
2021/01/21 06:20:16;;;;;;;262.37;179.73;;;;;;;-3.48;83.02;98118.80;119414;1148;65140;-81
2021/01/21 06:22:45;;;;;;;273.47;184.40;;;;;;;-3.49;82.88;98122.31;119338;1148;65212;-81
2021/01/21 06:25:14;;;;;;;280.47;185.97;;;;;;;-3.41;83.77;98122.98;119356;1148;65532;-82
2021/01/21 06:27:43;;;;;;;270.85;183.65;;;;;;;-3.39;83.82;98119.44;119337;1148;65105;-81
2021/01/21 06:30:16;;;;;;;265.73;178.87;;;;;;;-3.35;83.72;98125.42;119271;1148;65196;-82
2021/01/21 06:33:03;;;;;;;269.83;177.63;;;;;;;-3.35;82.83;98117.61;118846;1148;65042;-80
2021/01/21 06:35:42;;;;;;;266.70;174.97;;;;;;;-3.37;83.04;98119.39;119096;1146;65290;-80
2021/01/21 06:38:13;;;;;;;275.67;186.93;;;;;;;-3.35;83.02;98130.62;119356;1147;65118;-81
2021/01/21 06:40:46;;;;;;;274.97;178.47;;;;;;;-3.35;83.31;98122.81;118825;1148;65212;-80
2021/01/21 06:43:39;;;;;;;292.83;204.60;;;;;;;-3.32;82.92;98127.94;119292;1148;65107;-79
2021/01/21 06:46:12;;;;;;;290.05;200.10;;;;;;;-3.29;83.04;98130.50;119286;1148;65228;-81
2021/01/21 06:48:40;;;;;;;302.63;216.80;;;;;;;-3.23;83.54;98129.48;119309;1148;65226;-79
2021/01/21 06:51:10;;;;;;;273.37;197.40;;;;;;;-3.15;82.70;98130.98;119312;1148;65567;-80
2021/01/21 06:53:43;;;;;;;311.95;225.35;;;;;;;-3.14;83.58;98134.44;119278;1148;65161;-80
2021/01/21 06:56:11;;;;;;;286.90;206.17;;;;;;;-3.09;82.78;98132.58;119369;1148;65213;-80
2021/01/21 06:58:44;;;;;;;271.27;199.97;;;;;;;-3.05;83.41;98135.95;119298;1148;65081;-80
2021/01/21 07:01:29;;;;;;;276.10;196.03;;;;;;;-2.97;83.62;98139.23;119331;1148;65124;-80
2021/01/21 07:04:01;;;;;;;296.10;204.95;;;;;;;-2.89;82.81;98132.91;119309;1148;65449;-80
2021/01/21 07:06:50;;;;;;;250.13;183.50;;;;;;;-2.78;83.62;98136.98;119266;1148;65133;-80
2021/01/21 07:09:26;;;;;;;279.80;198.20;;;;;;;-2.77;83.11;98136.08;119338;1148;65225;-80
2021/01/21 07:11:57;;;;;;;265.80;191.05;;;;;;;-2.81;82.93;98137.08;119229;1146;65169;-79
2021/01/21 07:14:27;;;;;;;268.45;191.15;;;;;;;-2.84;82.35;98129.30;119181;1148;65242;-82
2021/01/21 07:16:59;;;;;;;276.93;191.00;;;;;;;-2.84;82.77;98126.70;119160;1147;65108;-81
2021/01/21 07:19:39;;;;;;;280.50;191.95;;;;;;;-2.83;82.54;98124.06;118881;1147;65182;-81
2021/01/21 07:22:20;;;;;;;272.90;187.90;;;;;;;-2.81;82.13;98122.28;119268;1148;65215;-81
2021/01/21 07:24:54;;;;;;;271.90;190.05;;;;;;;-2.79;82.48;98125.70;119366;1148;65108;-80
2021/01/21 07:27:24;;;;;;;270.73;190.37;;;;;;;-2.76;82.59;98123.01;119319;1148;65245;-79
2021/01/21 07:30:10;;;;;;;268.83;189.97;;;;;;;-2.62;82.89;98126.98;119005;1148;65118;-80
2021/01/21 07:32:36;;;;;;;270.33;195.77;;;;;;;-2.54;82.83;98131.08;119168;1148;65490;-80
2021/01/21 07:35:03;;;;;;;265.27;190.40;;;;;;;-2.51;82.46;98128.38;118945;1148;65107;-80
2021/01/21 07:37:44;;;;;;;259.30;189.40;;;;;;;-2.46;82.22;98133.47;119329;1148;65024;-79
2021/01/21 07:40:12;;;;;;;278.15;191.40;;;;;;;-2.30;82.38;98128.67;119358;1147;65015;-82
2021/01/21 07:42:38;;;;;;;268.00;186.10;;;;;;;-2.17;82.44;98127.41;119109;1148;65125;-81
2021/01/21 07:45:15;;;;;;;268.30;187.53;;;;;;;-2.12;81.92;98137.72;118865;1148;65108;-81
2021/01/21 07:47:43;;;;;;;257.70;179.57;;;;;;;-2.03;82.49;98132.20;118877;1148;65057;-81
2021/01/21 07:50:16;;;;;;;265.87;190.43;;;;;;;-1.92;81.74;98119.70;119042;1148;65098;-81
2021/01/21 07:52:53;;;;;;;239.57;174.37;;;;;;;-1.77;82.46;98115.73;119195;1148;65188;-81
2021/01/21 07:55:31;;;;;;;268.37;196.73;;;;;;;-1.71;82.02;98123.41;119324;1147;65172;-80
2021/01/21 07:58:27;;;;;;;258.10;189.63;;;;;;;-1.60;81.42;98116.07;119305;1148;65028;-80
2021/01/21 08:00:56;;;;;;;229.53;168.13;;;;;;;-1.44;81.57;98113.81;119371;1148;65030;-81
2021/01/21 08:03:30;;;;;;;226.67;159.07;;;;;;;-1.31;81.60;98110.80;119223;1148;65212;-79
2021/01/21 08:06:10;;;;;;;247.95;186.15;;;;;;;-1.22;81.82;98110.48;119032;1148;65142;-79
2021/01/21 08:08:42;;;;;;;271.55;190.30;;;;;;;-1.09;81.99;98108.31;119332;1148;65135;-80
2021/01/21 08:11:17;;;;;;;256.73;195.10;;;;;;;-0.93;81.95;98106.86;119217;1148;65111;-80
2021/01/21 08:13:44;;;;;;;268.77;200.80;;;;;;;-0.79;81.37;98102.02;119277;1147;65038;-80
2021/01/21 08:16:13;;;;;;;238.57;183.87;;;;;;;-0.66;81.53;98097.17;119273;1148;65134;-78
2021/01/21 08:18:39;;;;;;;252.63;195.83;;;;;;;-0.53;81.30;98094.97;119284;1148;65280;-79
2021/01/21 08:21:25;;;;;;;234.33;171.00;;;;;;;-0.43;80.91;98093.72;119249;1148;65097;-82
2021/01/21 08:23:56;;;;;;;240.93;177.67;;;;;;;-0.38;80.96;98098.80;119259;1148;65099;-78
2021/01/21 08:26:27;;;;;;;226.35;168.60;;;;;;;-0.24;81.50;98093.88;119125;1148;65085;-82
2021/01/21 08:28:54;;;;;;;230.10;173.17;;;;;;;-0.10;80.84;98088.14;119046;1148;65108;-81
2021/01/21 08:31:30;;;;;;;257.50;196.45;;;;;;;0.03;81.01;98078.02;118960;1148;65239;-81
2021/01/21 08:33:57;;;;;;;222.37;167.83;;;;;;;0.16;81.37;98072.25;119246;1147;65177;-79
2021/01/21 08:36:25;;;;;;;178.23;132.73;;;;;;;0.29;80.51;98067.38;119363;1148;65108;-78
2021/01/21 08:38:52;;;;;;;193.90;148.90;;;;;;;0.42;80.67;98057.22;119289;1147;65111;-80
2021/01/21 08:41:20;;;;;;;222.65;164.15;;;;;;;0.57;81.36;98047.88;119254;1148;65097;-80
2021/01/21 08:43:47;;;;;;;223.20;162.57;;;;;;;0.75;81.08;98051.50;119310;1148;65182;-80
2021/01/21 08:46:20;;;;;;;204.50;156.73;;;;;;;0.90;80.72;98055.25;118955;1148;65113;-80
2021/01/21 08:48:48;;;;;;;200.07;145.07;;;;;;;1.05;80.86;98055.44;119138;1148;65078;-81
2021/01/21 08:51:37;;;;;;;190.90;138.85;;;;;;;1.18;80.89;98055.73;119310;1147;65108;-80
2021/01/21 08:54:19;;;;;;;192.55;146.85;;;;;;;1.35;80.81;98055.00;119325;1148;65113;-79
2021/01/21 08:57:05;;;;;;;206.50;155.23;;;;;;;1.51;80.56;98050.75;119286;1148;65187;-79
2021/01/21 08:59:32;;;;;;;224.97;153.50;;;;;;;1.61;79.86;98059.07;119308;1148;65182;-80
2021/01/21 09:01:59;;;;;;;224.13;162.13;;;;;;;1.69;80.06;98067.45;119313;1148;65188;-79
2021/01/21 09:04:30;;;;;;;194.60;145.13;;;;;;;1.78;80.13;98065.31;119021;1148;65084;-79
2021/01/21 09:06:59;;;;;;;165.47;123.83;;;;;;;1.91;80.32;98056.78;119268;1147;65124;-80
2021/01/21 09:09:28;;;;;;;173.35;127.15;;;;;;;2.08;79.82;98060.38;118931;1148;65188;-81
2021/01/21 09:11:55;;;;;;;179.97;134.23;;;;;;;2.23;80.04;98058.81;119208;1148;65085;-81
2021/01/21 09:14:26;;;;;;;182.50;140.83;;;;;;;2.35;79.80;98052.97;119048;1148;65143;-81
2021/01/21 09:16:55;;;;;;;188.40;142.30;;;;;;;2.48;79.95;98061.11;119358;1148;65028;-82
2021/01/21 09:19:28;;;;;;;183.18;143.45;;;;;;;2.59;80.01;98064.89;119301;1148;65111;-80
2021/01/21 09:21:58;;;;;;;185.47;139.87;;;;;;;2.73;79.49;98066.83;119354;1147;65156;-81
2021/01/21 09:24:25;;;;;;;180.87;134.97;;;;;;;2.86;79.73;98057.39;119195;1148;65079;-81
2021/01/21 09:27:18;;;;;;;180.27;135.10;;;;;;;2.99;78.98;98060.25;119049;1148;65203;-81
2021/01/21 09:29:51;;;;;;;192.27;141.23;;;;;;;3.12;79.26;98057.84;119323;1148;65041;-81
2021/01/21 09:32:23;;;;;;;176.50;130.83;;;;;;;3.24;78.88;98053.73;119330;1148;65085;-81
2021/01/21 09:35:06;;;;;;;186.45;134.80;;;;;;;3.37;79.13;98061.81;119340;1148;65191;-80
2021/01/21 09:37:38;;;;;;;180.13;134.33;;;;;;;3.57;79.07;98061.61;119356;1148;65277;-79
2021/01/21 09:40:06;;;;;;;182.50;136.45;;;;;;;3.74;79.30;98061.57;119325;1148;65095;-80
2021/01/21 09:42:33;;;;;;;143.80;109.25;;;;;;;3.90;78.52;98050.20;119294;1148;65156;-79
2021/01/21 09:44:59;;;;;;;169.40;124.00;;;;;;;4.06;78.60;98045.77;119186;1148;65111;-80
2021/01/21 09:47:26;;;;;;;140.50;106.63;;;;;;;4.21;78.32;98038.77;119081;1148;65207;-79
2021/01/21 09:49:53;;;;;;;195.63;142.70;;;;;;;4.35;78.38;98035.37;119265;1148;65614;-79
2021/01/21 09:52:19;;;;;;;200.73;149.83;;;;;;;4.48;77.75;98032.88;119255;1148;65120;-82
2021/01/21 09:54:46;;;;;;;199.37;150.07;;;;;;;4.61;77.97;98041.78;119356;1148;65146;-79
2021/01/21 09:57:12;;;;;;;231.60;166.15;;;;;;;4.71;77.65;98035.00;119265;1148;65015;-79
2021/01/21 09:59:39;;;;;;;220.40;151.65;;;;;;;4.83;77.61;98029.02;119284;1148;65207;-79
2021/01/21 10:02:06;;;;;;;158.37;117.77;;;;;;;4.96;77.60;98025.66;119276;1148;65207;-79
2021/01/21 10:04:36;;;;;;;193.47;141.27;;;;;;;5.09;77.30;98017.85;119286;1148;65108;-79
2021/01/21 10:07:04;;;;;;;194.53;140.97;;;;;;;5.24;77.43;98020.41;119275;1148;65171;-78
2021/01/21 10:09:31;;;;;;;187.37;137.03;;;;;;;5.35;76.89;98022.39;119278;1148;65095;-79
2021/01/21 10:11:58;;;;;;;177.87;126.67;;;;;;;5.47;76.77;98024.27;119267;1148;65021;-80
2021/01/21 10:14:25;;;;;;;188.00;133.80;;;;;;;5.60;76.68;98028.80;119269;1148;65183;-79
2021/01/21 10:16:53;;;;;;;152.80;111.65;;;;;;;5.70;76.35;98017.55;119306;1148;65082;-79
2021/01/21 10:19:20;;;;;;;144.40;105.13;;;;;;;5.82;76.20;98018.59;119262;1148;65114;-79
2021/01/21 10:21:46;;;;;;;139.45;99.00;;;;;;;5.93;76.15;98024.06;119249;1148;65092;-79
2021/01/21 10:24:13;;;;;;;180.50;119.00;;;;;;;6.06;75.99;98021.49;119251;1147;65220;-79
2021/01/21 10:26:39;;;;;;;167.03;109.77;;;;;;;6.20;75.91;98020.59;119292;1148;65118;-80
2021/01/21 10:29:06;;;;;;;141.83;99.63;;;;;;;6.32;75.70;98019.80;119122;1148;65130;-80
2021/01/21 10:31:33;;;;;;;109.45;81.30;;;;;;;6.42;75.39;98014.73;119272;1148;65545;-80
2021/01/21 10:33:59;;;;;;;83.17;57.70;;;;;;;6.55;75.00;98012.13;119264;1148;65092;-80
2021/01/21 10:36:26;;;;;;;72.97;50.53;;;;;;;6.71;74.61;98018.09;119245;1148;65120;-80
2021/01/21 10:38:52;;;;;;;62.95;41.55;;;;;;;6.91;74.76;98010.63;119286;1148;65102;-80
2021/01/21 10:41:19;;;;;;;50.25;31.52;;;;;;;7.05;74.30;98015.83;119262;1148;65079;-80
2021/01/21 10:43:45;;;;;;;41.67;26.33;;;;;;;7.22;73.91;98017.34;119289;1148;65111;-80
2021/01/21 10:46:11;;;;;;;21.97;15.80;;;;;;;7.35;73.75;98012.03;119263;1148;65133;-79
2021/01/21 10:48:38;;;;;;;13.53;8.73;;;;;;;7.44;73.05;98014.03;119243;1148;65209;-79
2021/01/21 10:51:04;;;;;;;11.33;6.53;;;;;;;7.55;72.65;98015.92;119294;1148;65264;-79
2021/01/21 10:53:31;;;;;;;9.20;6.20;;;;;;;7.66;71.84;98008.05;119246;1147;65114;-78
2021/01/21 10:55:58;;;;;;;8.93;5.70;;;;;;;7.75;71.68;98003.92;119034;1148;65114;-79
2021/01/21 10:58:24;;;;;;;9.07;6.30;;;;;;;7.82;70.93;98003.37;119290;1147;65146;-79
2021/01/21 11:00:50;;;;;;;8.50;5.83;;;;;;;7.88;71.25;97997.63;119218;1148;65704;-79
2021/01/21 11:03:17;;;;;;;8.47;5.97;;;;;;;7.93;70.38;97999.95;119294;1148;65105;-79
2021/01/21 11:05:44;;;;;;;8.13;5.20;;;;;;;7.96;70.38;97997.07;119270;1147;65082;-79
2021/01/21 11:08:12;;;;;;;10.17;6.23;;;;;;;8.00;70.33;97992.38;119282;1148;65069;-81